<?xml version="1.0" encoding="UTF-8"?>
<gpx version="1.1" creator="2bulu-scraper" xmlns="http://www.topografix.com/GPX/1/1">
  <metadata><name>自贡大安区</name><desc>source: 2bulu.com trackId=83010252; exported 2026-09-01T14:58:04.669Z</desc>
    <bounds minlat="29.4512061" minlon="104.8685892" maxlat="29.4597689" maxlon="104.8793156"/>
    <link href="https://www.2bulu.com/track/t-Lx9izDNMiwrp%252FR2KBg5Tzw%253D%253D.htm"><text>2bulu 源页面</text></link>
  </metadata>
  <wpt lat="29.4512778" lon="104.8721528"><ele>375</ele><name>
        </name></wpt>
  <wpt lat="29.4512778" lon="104.8721528"><ele>375</ele><name>古寨老街开始
        </name></wpt>
  <wpt lat="29.4514763" lon="104.8726532"><ele>371</ele><name>山寨城墙起点
        </name></wpt>
  <wpt lat="29.4519037" lon="104.8730698"><ele>364</ele><name>右边👉🏻
        </name></wpt>
  <wpt lat="29.4520015" lon="104.8750256"><ele>364</ele><name>碉楼
        </name></wpt>
  <wpt lat="29.4531586" lon="104.8777272"><ele>361</ele><name>右边
        </name></wpt>
  <wpt lat="29.4533544" lon="104.8777056"><ele>364</ele><name>李树
        </name></wpt>
  <wpt lat="29.4533544" lon="104.8777056"><ele>364</ele><name>桃树
        </name></wpt>
  <wpt lat="29.4535704" lon="104.8777547"><ele>355</ele><name>上公路
        </name></wpt>
  <wpt lat="29.4540188" lon="104.8786498"><ele>354</ele><name>飞机洞打卡
        </name></wpt>
  <wpt lat="29.4541489" lon="104.8787401"><ele>352</ele><name>
        </name></wpt>
  <wpt lat="29.4555778" lon="104.8792264"><ele>346</ele><name>花园可参观
        </name></wpt>
  <wpt lat="29.4552271" lon="104.8784335"><ele>351</ele><name>
        </name></wpt>
  <wpt lat="29.4552465" lon="104.8783263"><ele>352</ele><name>这里有个卫生间
        </name></wpt>
  <wpt lat="29.4551948" lon="104.8780133"><ele>353</ele><name>向上走
        </name></wpt>
  <wpt lat="29.4548239" lon="104.8777372"><ele>361</ele><name>往左
        </name></wpt>
  <wpt lat="29.4547472" lon="104.8759146"><ele>351</ele><name>这门出去
        </name></wpt>
  <wpt lat="29.457624" lon="104.8752276"><ele>353</ele><name>左上
        </name></wpt>
  <wpt lat="29.4576797" lon="104.8745882"><ele>352</ele><name>
        </name></wpt>
  <wpt lat="29.4577301" lon="104.874073"><ele>363</ele><name>
        </name></wpt>
  <wpt lat="29.4577301" lon="104.874073"><ele>363</ele><name>
        </name></wpt>
  <wpt lat="29.4577301" lon="104.874073"><ele>363</ele><name>风景点 路线海拔最高点
        </name></wpt>
  <wpt lat="29.4587344" lon="104.8709217"><ele>350</ele><name>
        </name></wpt>
  <wpt lat="29.4562584" lon="104.868626"><ele>330</ele><name>上坡
        </name></wpt>
  <wpt lat="29.4554079" lon="104.8691694"><ele>343</ele><name>西寨门
        </name></wpt>
  <wpt lat="29.4544471" lon="104.8694746"><ele>346</ele><name>
        </name></wpt>
  <wpt lat="29.4528614" lon="104.8710559"><ele>354</ele><name>
        </name></wpt>
  <wpt lat="29.4527848" lon="104.871076"><ele>355</ele><name>停车场
        </name></wpt>
  <trk><name>自贡大安区</name>
      <trkseg>
        <trkpt lat="29.4513453" lon="104.8721087"><ele>375.92</ele><time>2026-04-25T18:05:44.000Z</time></trkpt>
        <trkpt lat="29.4512778" lon="104.8721528"><ele>375.92</ele><time>2026-04-25T18:05:57.000Z</time></trkpt>
        <trkpt lat="29.4512061" lon="104.872211"><ele>375.34</ele><time>2026-04-25T18:06:31.000Z</time></trkpt>
        <trkpt lat="29.4512084" lon="104.8723098"><ele>374.83</ele><time>2026-04-25T18:06:49.000Z</time></trkpt>
        <trkpt lat="29.4512471" lon="104.872412"><ele>373.82</ele><time>2026-04-25T18:07:03.000Z</time></trkpt>
        <trkpt lat="29.4513124" lon="104.8724993"><ele>373.13</ele><time>2026-04-25T18:07:15.000Z</time></trkpt>
        <trkpt lat="29.4514117" lon="104.8725675"><ele>373.17</ele><time>2026-04-25T18:08:45.000Z</time></trkpt>
        <trkpt lat="29.4514763" lon="104.8726532"><ele>372.43</ele><time>2026-04-25T18:09:01.000Z</time></trkpt>
        <trkpt lat="29.4515363" lon="104.8727356"><ele>371.82</ele><time>2026-04-25T18:09:33.000Z</time></trkpt>
        <trkpt lat="29.451595" lon="104.8728232"><ele>370.77</ele><time>2026-04-25T18:09:51.000Z</time></trkpt>
        <trkpt lat="29.4516549" lon="104.872912"><ele>369.96</ele><time>2026-04-25T18:10:23.000Z</time></trkpt>
        <trkpt lat="29.4517292" lon="104.8729777"><ele>369.29</ele><time>2026-04-25T18:11:01.000Z</time></trkpt>
        <trkpt lat="29.4518137" lon="104.8730356"><ele>368.21</ele><time>2026-04-25T18:11:31.000Z</time></trkpt>
        <trkpt lat="29.4519037" lon="104.8730698"><ele>366.73</ele><time>2026-04-25T18:11:47.000Z</time></trkpt>
        <trkpt lat="29.4519195" lon="104.8731624"><ele>365.49</ele><time>2026-04-25T18:12:55.000Z</time></trkpt>
        <trkpt lat="29.4519737" lon="104.8732453"><ele>364.45</ele><time>2026-04-25T18:13:35.000Z</time></trkpt>
        <trkpt lat="29.4520506" lon="104.8733027"><ele>363.61</ele><time>2026-04-25T18:13:51.000Z</time></trkpt>
        <trkpt lat="29.4521351" lon="104.8733599"><ele>361.78</ele><time>2026-04-25T18:14:07.000Z</time></trkpt>
        <trkpt lat="29.4521002" lon="104.873327"><ele>360.33</ele><time>2026-04-25T18:14:31.000Z</time></trkpt>
        <trkpt lat="29.4521361" lon="104.8733731"><ele>360.85</ele><time>2026-04-25T18:16:21.000Z</time></trkpt>
        <trkpt lat="29.4521611" lon="104.8734733"><ele>359.15</ele><time>2026-04-25T18:16:46.000Z</time></trkpt>
        <trkpt lat="29.4521819" lon="104.8735746"><ele>358.5</ele><time>2026-04-25T18:17:00.000Z</time></trkpt>
        <trkpt lat="29.4521955" lon="104.8736828"><ele>358.5</ele><time>2026-04-25T18:17:20.000Z</time></trkpt>
        <trkpt lat="29.4521957" lon="104.8738003"><ele>359.5</ele><time>2026-04-25T18:18:10.000Z</time></trkpt>
        <trkpt lat="29.4521729" lon="104.8739147"><ele>360.35</ele><time>2026-04-25T18:18:34.000Z</time></trkpt>
        <trkpt lat="29.4521393" lon="104.8740264"><ele>361.4</ele><time>2026-04-25T18:18:50.000Z</time></trkpt>
        <trkpt lat="29.4521255" lon="104.8741374"><ele>362</ele><time>2026-04-25T18:19:06.000Z</time></trkpt>
        <trkpt lat="29.4521235" lon="104.874254"><ele>362.38</ele><time>2026-04-25T18:19:22.000Z</time></trkpt>
        <trkpt lat="29.4521224" lon="104.8743682"><ele>362.46</ele><time>2026-04-25T18:19:36.000Z</time></trkpt>
        <trkpt lat="29.4521053" lon="104.8744728"><ele>362.29</ele><time>2026-04-25T18:19:48.000Z</time></trkpt>
        <trkpt lat="29.4520823" lon="104.8745851"><ele>361.94</ele><time>2026-04-25T18:20:02.000Z</time></trkpt>
        <trkpt lat="29.4520504" lon="104.874695"><ele>361.68</ele><time>2026-04-25T18:20:16.000Z</time></trkpt>
        <trkpt lat="29.4520249" lon="104.8748041"><ele>361.45</ele><time>2026-04-25T18:20:30.000Z</time></trkpt>
        <trkpt lat="29.4520262" lon="104.8749136"><ele>361.31</ele><time>2026-04-25T18:20:48.000Z</time></trkpt>
        <trkpt lat="29.4520015" lon="104.8750256"><ele>362.18</ele><time>2026-04-25T18:21:04.000Z</time></trkpt>
        <trkpt lat="29.4519854" lon="104.8751404"><ele>363.15</ele><time>2026-04-25T18:21:44.000Z</time></trkpt>
        <trkpt lat="29.4520028" lon="104.8752484"><ele>363.4</ele><time>2026-04-25T18:22:12.000Z</time></trkpt>
        <trkpt lat="29.4520523" lon="104.8751532"><ele>363.47</ele><time>2026-04-25T18:23:24.000Z</time></trkpt>
        <trkpt lat="29.4520523" lon="104.8751532"><ele>363.47</ele><time>2026-04-25T18:23:52.000Z</time></trkpt>
      </trkseg>
      <trkseg>
        <trkpt lat="29.4521005" lon="104.8752536"><ele>363.13</ele><time>2026-04-25T18:24:47.000Z</time></trkpt>
        <trkpt lat="29.4521005" lon="104.8752536"><ele>363.13</ele><time>2026-04-25T18:24:58.000Z</time></trkpt>
        <trkpt lat="29.452162" lon="104.8753335"><ele>363.02</ele><time>2026-04-25T18:25:42.000Z</time></trkpt>
        <trkpt lat="29.4522123" lon="104.875428"><ele>363.05</ele><time>2026-04-25T18:26:24.000Z</time></trkpt>
        <trkpt lat="29.4522721" lon="104.8755176"><ele>363.31</ele><time>2026-04-25T18:26:52.000Z</time></trkpt>
        <trkpt lat="29.4523101" lon="104.8756263"><ele>363.66</ele><time>2026-04-25T18:27:32.000Z</time></trkpt>
        <trkpt lat="29.4523417" lon="104.8757381"><ele>364.25</ele><time>2026-04-25T18:27:50.000Z</time></trkpt>
        <trkpt lat="29.4523513" lon="104.8758488"><ele>364.44</ele><time>2026-04-25T18:28:06.000Z</time></trkpt>
        <trkpt lat="29.4523641" lon="104.8759585"><ele>364.94</ele><time>2026-04-25T18:28:20.000Z</time></trkpt>
        <trkpt lat="29.4524023" lon="104.8760605"><ele>364.79</ele><time>2026-04-25T18:28:34.000Z</time></trkpt>
        <trkpt lat="29.4524461" lon="104.8761684"><ele>364.68</ele><time>2026-04-25T18:28:48.000Z</time></trkpt>
        <trkpt lat="29.4524424" lon="104.8762747"><ele>364.7</ele><time>2026-04-25T18:29:02.000Z</time></trkpt>
        <trkpt lat="29.4524843" lon="104.8763795"><ele>364.52</ele><time>2026-04-25T18:29:14.000Z</time></trkpt>
        <trkpt lat="29.4525178" lon="104.8764806"><ele>364.59</ele><time>2026-04-25T18:29:28.000Z</time></trkpt>
        <trkpt lat="29.4525372" lon="104.8765888"><ele>363.68</ele><time>2026-04-25T18:29:42.000Z</time></trkpt>
        <trkpt lat="29.4525733" lon="104.8766869"><ele>362.83</ele><time>2026-04-25T18:29:54.000Z</time></trkpt>
        <trkpt lat="29.4526128" lon="104.8767833"><ele>362.02</ele><time>2026-04-25T18:30:06.000Z</time></trkpt>
        <trkpt lat="29.4526604" lon="104.8768731"><ele>361.3</ele><time>2026-04-25T18:30:18.000Z</time></trkpt>
        <trkpt lat="29.4526977" lon="104.876928"><ele>361.24</ele><time>2026-04-25T18:30:28.000Z</time></trkpt>
        <trkpt lat="29.4527497" lon="104.8769986"><ele>361.18</ele><time>2026-04-25T18:30:44.000Z</time></trkpt>
        <trkpt lat="29.452801" lon="104.8770887"><ele>360.89</ele><time>2026-04-25T18:31:18.000Z</time></trkpt>
        <trkpt lat="29.4528434" lon="104.8771851"><ele>361.5</ele><time>2026-04-25T18:31:34.000Z</time></trkpt>
        <trkpt lat="29.4528942" lon="104.87728"><ele>361.65</ele><time>2026-04-25T18:31:50.000Z</time></trkpt>
        <trkpt lat="29.4529496" lon="104.8773664"><ele>361.84</ele><time>2026-04-25T18:32:30.000Z</time></trkpt>
        <trkpt lat="29.453017" lon="104.8774487"><ele>362.34</ele><time>2026-04-25T18:32:50.000Z</time></trkpt>
        <trkpt lat="29.4530723" lon="104.8775372"><ele>362.38</ele><time>2026-04-25T18:33:10.000Z</time></trkpt>
        <trkpt lat="29.4531169" lon="104.877632"><ele>362.16</ele><time>2026-04-25T18:33:42.000Z</time></trkpt>
        <trkpt lat="29.4531586" lon="104.8777272"><ele>361.55</ele><time>2026-04-25T18:34:00.000Z</time></trkpt>
        <trkpt lat="29.4531586" lon="104.8777272"><ele>361.55</ele><time>2026-04-25T18:35:38.000Z</time></trkpt>
      </trkseg>
      <trkseg>
        <trkpt lat="29.4533544" lon="104.8777056"><ele>361.48</ele><time>2026-04-25T18:37:58.000Z</time></trkpt>
        <trkpt lat="29.4533544" lon="104.8777056"><ele>361.48</ele><time>2026-04-25T18:37:58.000Z</time></trkpt>
        <trkpt lat="29.4534323" lon="104.8776913"><ele>362.69</ele><time>2026-04-25T18:39:10.000Z</time></trkpt>
        <trkpt lat="29.4535278" lon="104.8776995"><ele>362.29</ele><time>2026-04-25T18:39:36.000Z</time></trkpt>
        <trkpt lat="29.4535589" lon="104.8777966"><ele>360.64</ele><time>2026-04-25T18:40:20.000Z</time></trkpt>
        <trkpt lat="29.4535046" lon="104.8778864"><ele>358.84</ele><time>2026-04-25T18:40:32.000Z</time></trkpt>
        <trkpt lat="29.4534344" lon="104.8779693"><ele>358.58</ele><time>2026-04-25T18:40:42.000Z</time></trkpt>
        <trkpt lat="29.4533549" lon="104.8780461"><ele>358.98</ele><time>2026-04-25T18:40:54.000Z</time></trkpt>
        <trkpt lat="29.4533784" lon="104.87801"><ele>359.18</ele><time>2026-04-25T18:41:20.000Z</time></trkpt>
        <trkpt lat="29.4534341" lon="104.8779248"><ele>358.49</ele><time>2026-04-25T18:41:36.000Z</time></trkpt>
        <trkpt lat="29.4535129" lon="104.8778423"><ele>358.08</ele><time>2026-04-25T18:41:46.000Z</time></trkpt>
        <trkpt lat="29.4535704" lon="104.8777547"><ele>357.13</ele><time>2026-04-25T18:41:56.000Z</time></trkpt>
        <trkpt lat="29.4536512" lon="104.8777073"><ele>356.41</ele><time>2026-04-25T18:42:28.000Z</time></trkpt>
        <trkpt lat="29.4537425" lon="104.8776892"><ele>355.44</ele><time>2026-04-25T18:43:02.000Z</time></trkpt>
        <trkpt lat="29.4538402" lon="104.8776843"><ele>353.96</ele><time>2026-04-25T18:43:36.000Z</time></trkpt>
        <trkpt lat="29.4539346" lon="104.8776923"><ele>353.24</ele><time>2026-04-25T18:44:00.000Z</time></trkpt>
        <trkpt lat="29.4539575" lon="104.8777807"><ele>353.08</ele><time>2026-04-25T18:44:16.000Z</time></trkpt>
        <trkpt lat="29.4539357" lon="104.8778915"><ele>353.09</ele><time>2026-04-25T18:44:28.000Z</time></trkpt>
        <trkpt lat="29.4539136" lon="104.8780126"><ele>353.15</ele><time>2026-04-25T18:44:40.000Z</time></trkpt>
        <trkpt lat="29.4539006" lon="104.87813"><ele>353.25</ele><time>2026-04-25T18:45:08.000Z</time></trkpt>
        <trkpt lat="29.4538949" lon="104.8782465"><ele>353.77</ele><time>2026-04-25T18:45:20.000Z</time></trkpt>
        <trkpt lat="29.4538975" lon="104.8783659"><ele>353.93</ele><time>2026-04-25T18:45:32.000Z</time></trkpt>
        <trkpt lat="29.4539137" lon="104.8784745"><ele>353.74</ele><time>2026-04-25T18:45:44.000Z</time></trkpt>
        <trkpt lat="29.453945" lon="104.8785785"><ele>353.37</ele><time>2026-04-25T18:45:56.000Z</time></trkpt>
        <trkpt lat="29.4540188" lon="104.8786498"><ele>353.17</ele><time>2026-04-25T18:46:10.000Z</time></trkpt>
        <trkpt lat="29.4540386" lon="104.8787624"><ele>353.64</ele><time>2026-04-25T18:47:38.000Z</time></trkpt>
        <trkpt lat="29.4540363" lon="104.8788207"><ele>353.76</ele><time>2026-04-25T18:47:46.000Z</time></trkpt>
        <trkpt lat="29.4540667" lon="104.8789136"><ele>354.15</ele><time>2026-04-25T18:48:18.000Z</time></trkpt>
        <trkpt lat="29.4540086" lon="104.8789731"><ele>354.29</ele><time>2026-04-25T18:48:32.000Z</time></trkpt>
        <trkpt lat="29.4540399" lon="104.8789363"><ele>354.64</ele><time>2026-04-25T18:48:46.000Z</time></trkpt>
        <trkpt lat="29.4540399" lon="104.8789363"><ele>354.64</ele><time>2026-04-25T18:48:49.000Z</time></trkpt>
      </trkseg>
      <trkseg>
        <trkpt lat="29.4541489" lon="104.8787401"><ele>354.9</ele><time>2026-04-25T18:49:24.000Z</time></trkpt>
        <trkpt lat="29.4541489" lon="104.8787401"><ele>354.9</ele><time>2026-04-25T18:49:32.000Z</time></trkpt>
        <trkpt lat="29.4541807" lon="104.8790125"><ele>353.78</ele><time>2026-04-25T18:50:59.000Z</time></trkpt>
        <trkpt lat="29.454235" lon="104.8791422"><ele>348.01</ele><time>2026-04-25T18:51:04.000Z</time></trkpt>
        <trkpt lat="29.4542201" lon="104.8790082"><ele>346.99</ele><time>2026-04-25T18:51:45.000Z</time></trkpt>
        <trkpt lat="29.4541876" lon="104.878888"><ele>346.18</ele><time>2026-04-25T18:51:50.000Z</time></trkpt>
        <trkpt lat="29.4541596" lon="104.8787627"><ele>350.51</ele><time>2026-04-25T18:52:02.000Z</time></trkpt>
        <trkpt lat="29.4541559" lon="104.8786463"><ele>353.42</ele><time>2026-04-25T18:52:22.000Z</time></trkpt>
        <trkpt lat="29.4540856" lon="104.8786413"><ele>354.89</ele><time>2026-04-25T18:52:52.000Z</time></trkpt>
        <trkpt lat="29.4540462" lon="104.8787273"><ele>355.66</ele><time>2026-04-25T18:53:08.000Z</time></trkpt>
        <trkpt lat="29.4540609" lon="104.8788411"><ele>355.8</ele><time>2026-04-25T18:53:22.000Z</time></trkpt>
        <trkpt lat="29.4541201" lon="104.8789378"><ele>355.76</ele><time>2026-04-25T18:53:36.000Z</time></trkpt>
        <trkpt lat="29.4542067" lon="104.8789934"><ele>355.64</ele><time>2026-04-25T18:53:58.000Z</time></trkpt>
        <trkpt lat="29.4543054" lon="104.8790368"><ele>355.51</ele><time>2026-04-25T18:54:12.000Z</time></trkpt>
        <trkpt lat="29.4544046" lon="104.8790739"><ele>354.99</ele><time>2026-04-25T18:54:28.000Z</time></trkpt>
        <trkpt lat="29.4545013" lon="104.8790992"><ele>353.89</ele><time>2026-04-25T18:55:12.000Z</time></trkpt>
        <trkpt lat="29.4545972" lon="104.8791263"><ele>352.06</ele><time>2026-04-25T18:55:44.000Z</time></trkpt>
        <trkpt lat="29.4546927" lon="104.8791544"><ele>350.55</ele><time>2026-04-25T18:55:58.000Z</time></trkpt>
        <trkpt lat="29.4547789" lon="104.8791915"><ele>348.68</ele><time>2026-04-25T18:56:10.000Z</time></trkpt>
        <trkpt lat="29.454862" lon="104.8792403"><ele>346.73</ele><time>2026-04-25T18:56:22.000Z</time></trkpt>
        <trkpt lat="29.4549316" lon="104.8793135"><ele>345.59</ele><time>2026-04-25T18:56:36.000Z</time></trkpt>
        <trkpt lat="29.4550235" lon="104.8793145"><ele>345.32</ele><time>2026-04-25T18:59:06.000Z</time></trkpt>
        <trkpt lat="29.4551244" lon="104.8793156"><ele>344.93</ele><time>2026-04-25T18:59:22.000Z</time></trkpt>
        <trkpt lat="29.4552201" lon="104.8793134"><ele>345.17</ele><time>2026-04-25T18:59:36.000Z</time></trkpt>
        <trkpt lat="29.4553109" lon="104.8792871"><ele>345.54</ele><time>2026-04-25T18:59:52.000Z</time></trkpt>
        <trkpt lat="29.4553946" lon="104.8792441"><ele>345.73</ele><time>2026-04-25T19:00:10.000Z</time></trkpt>
        <trkpt lat="29.4554818" lon="104.87923"><ele>346</ele><time>2026-04-25T19:00:26.000Z</time></trkpt>
        <trkpt lat="29.4555778" lon="104.8792264"><ele>346.03</ele><time>2026-04-25T19:00:44.000Z</time></trkpt>
        <trkpt lat="29.4555605" lon="104.8791211"><ele>346.05</ele><time>2026-04-25T19:03:44.000Z</time></trkpt>
        <trkpt lat="29.4555475" lon="104.8790096"><ele>346.58</ele><time>2026-04-25T19:04:12.000Z</time></trkpt>
        <trkpt lat="29.4555576" lon="104.8789024"><ele>346.69</ele><time>2026-04-25T19:04:34.000Z</time></trkpt>
        <trkpt lat="29.4555618" lon="104.8787906"><ele>347.55</ele><time>2026-04-25T19:05:28.000Z</time></trkpt>
        <trkpt lat="29.4555533" lon="104.8786851"><ele>347.82</ele><time>2026-04-25T19:05:56.000Z</time></trkpt>
        <trkpt lat="29.4555533" lon="104.8786851"><ele>347.82</ele><time>2026-04-25T19:06:12.000Z</time></trkpt>
      </trkseg>
      <trkseg>
        <trkpt lat="29.4552985" lon="104.878619"><ele>347.61</ele><time>2026-04-25T19:07:39.000Z</time></trkpt>
        <trkpt lat="29.4552985" lon="104.878619"><ele>347.61</ele><time>2026-04-25T19:07:42.000Z</time></trkpt>
        <trkpt lat="29.4552375" lon="104.8785357"><ele>348.81</ele><time>2026-04-25T19:07:58.000Z</time></trkpt>
        <trkpt lat="29.4552271" lon="104.8784335"><ele>348.96</ele><time>2026-04-25T19:08:14.000Z</time></trkpt>
        <trkpt lat="29.4552465" lon="104.8783263"><ele>349.96</ele><time>2026-04-25T19:09:08.000Z</time></trkpt>
        <trkpt lat="29.4552653" lon="104.8782165"><ele>350.85</ele><time>2026-04-25T19:09:56.000Z</time></trkpt>
        <trkpt lat="29.4552518" lon="104.8781009"><ele>351.38</ele><time>2026-04-25T19:10:28.000Z</time></trkpt>
        <trkpt lat="29.4551948" lon="104.8780133"><ele>351.81</ele><time>2026-04-25T19:11:00.000Z</time></trkpt>
        <trkpt lat="29.4551202" lon="104.8779403"><ele>352.17</ele><time>2026-04-25T19:11:48.000Z</time></trkpt>
        <trkpt lat="29.4551201" lon="104.8778422"><ele>353.83</ele><time>2026-04-25T19:12:08.000Z</time></trkpt>
        <trkpt lat="29.4550581" lon="104.8777814"><ele>355.27</ele><time>2026-04-25T19:12:26.000Z</time></trkpt>
        <trkpt lat="29.454973" lon="104.877791"><ele>356.45</ele><time>2026-04-25T19:12:44.000Z</time></trkpt>
        <trkpt lat="29.4548754" lon="104.8778052"><ele>357.52</ele><time>2026-04-25T19:13:10.000Z</time></trkpt>
        <trkpt lat="29.4548239" lon="104.8777372"><ele>358.72</ele><time>2026-04-25T19:13:26.000Z</time></trkpt>
        <trkpt lat="29.4547791" lon="104.8776449"><ele>359.73</ele><time>2026-04-25T19:13:56.000Z</time></trkpt>
        <trkpt lat="29.4546973" lon="104.8776363"><ele>360.1</ele><time>2026-04-25T19:14:10.000Z</time></trkpt>
        <trkpt lat="29.4546016" lon="104.8776528"><ele>360.15</ele><time>2026-04-25T19:14:22.000Z</time></trkpt>
        <trkpt lat="29.4545048" lon="104.8776782"><ele>359.99</ele><time>2026-04-25T19:14:34.000Z</time></trkpt>
        <trkpt lat="29.4544107" lon="104.8777038"><ele>359.84</ele><time>2026-04-25T19:14:50.000Z</time></trkpt>
        <trkpt lat="29.4543187" lon="104.8777287"><ele>359.85</ele><time>2026-04-25T19:15:02.000Z</time></trkpt>
        <trkpt lat="29.4542228" lon="104.8777223"><ele>359.95</ele><time>2026-04-25T19:15:16.000Z</time></trkpt>
        <trkpt lat="29.4541268" lon="104.8777035"><ele>359.79</ele><time>2026-04-25T19:15:28.000Z</time></trkpt>
        <trkpt lat="29.4540445" lon="104.8776381"><ele>359.54</ele><time>2026-04-25T19:15:44.000Z</time></trkpt>
        <trkpt lat="29.4540099" lon="104.8775354"><ele>358.95</ele><time>2026-04-25T19:16:00.000Z</time></trkpt>
        <trkpt lat="29.4540099" lon="104.8775354"><ele>358.95</ele><time>2026-04-25T19:16:32.000Z</time></trkpt>
      </trkseg>
      <trkseg>
        <trkpt lat="29.4540437" lon="104.8772974"><ele>358.94</ele><time>2026-04-25T19:18:34.000Z</time></trkpt>
        <trkpt lat="29.4540437" lon="104.8772974"><ele>358.94</ele><time>2026-04-25T19:18:48.000Z</time></trkpt>
        <trkpt lat="29.4540537" lon="104.8771812"><ele>358.54</ele><time>2026-04-25T19:19:04.000Z</time></trkpt>
        <trkpt lat="29.4541075" lon="104.8770912"><ele>358.92</ele><time>2026-04-25T19:19:20.000Z</time></trkpt>
        <trkpt lat="29.4541779" lon="104.8770173"><ele>359.33</ele><time>2026-04-25T19:19:34.000Z</time></trkpt>
        <trkpt lat="29.4542562" lon="104.8769585"><ele>360.41</ele><time>2026-04-25T19:19:58.000Z</time></trkpt>
        <trkpt lat="29.4543283" lon="104.8768831"><ele>361.22</ele><time>2026-04-25T19:20:16.000Z</time></trkpt>
        <trkpt lat="29.4543815" lon="104.8767923"><ele>362.41</ele><time>2026-04-25T19:20:48.000Z</time></trkpt>
        <trkpt lat="29.4543994" lon="104.876686"><ele>363.44</ele><time>2026-04-25T19:21:04.000Z</time></trkpt>
        <trkpt lat="29.4543796" lon="104.8765782"><ele>364.81</ele><time>2026-04-25T19:21:22.000Z</time></trkpt>
        <trkpt lat="29.4543567" lon="104.8764692"><ele>365.59</ele><time>2026-04-25T19:21:38.000Z</time></trkpt>
        <trkpt lat="29.4543159" lon="104.8763684"><ele>366.4</ele><time>2026-04-25T19:21:56.000Z</time></trkpt>
        <trkpt lat="29.4542569" lon="104.8762701"><ele>367.38</ele><time>2026-04-25T19:22:12.000Z</time></trkpt>
        <trkpt lat="29.454203" lon="104.8761676"><ele>368.6</ele><time>2026-04-25T19:22:34.000Z</time></trkpt>
        <trkpt lat="29.4542246" lon="104.8760714"><ele>368.67</ele><time>2026-04-25T19:22:50.000Z</time></trkpt>
        <trkpt lat="29.4542786" lon="104.8759833"><ele>367.35</ele><time>2026-04-25T19:23:06.000Z</time></trkpt>
        <trkpt lat="29.4543352" lon="104.8758836"><ele>365.57</ele><time>2026-04-25T19:23:22.000Z</time></trkpt>
        <trkpt lat="29.4544232" lon="104.8758574"><ele>364.72</ele><time>2026-04-25T19:23:46.000Z</time></trkpt>
        <trkpt lat="29.4545006" lon="104.8759129"><ele>362.48</ele><time>2026-04-25T19:24:02.000Z</time></trkpt>
        <trkpt lat="29.4545853" lon="104.875975"><ele>360.14</ele><time>2026-04-25T19:24:20.000Z</time></trkpt>
        <trkpt lat="29.4546718" lon="104.8759723"><ele>357.66</ele><time>2026-04-25T19:24:32.000Z</time></trkpt>
        <trkpt lat="29.4547472" lon="104.8759146"><ele>355.73</ele><time>2026-04-25T19:24:46.000Z</time></trkpt>
        <trkpt lat="29.4547971" lon="104.8758218"><ele>353.48</ele><time>2026-04-25T19:25:16.000Z</time></trkpt>
        <trkpt lat="29.4548477" lon="104.8757216"><ele>352.57</ele><time>2026-04-25T19:25:34.000Z</time></trkpt>
        <trkpt lat="29.4549235" lon="104.8756607"><ele>351.02</ele><time>2026-04-25T19:25:46.000Z</time></trkpt>
        <trkpt lat="29.4549958" lon="104.8755863"><ele>350.3</ele><time>2026-04-25T19:26:02.000Z</time></trkpt>
        <trkpt lat="29.4550723" lon="104.8756084"><ele>349.06</ele><time>2026-04-25T19:26:18.000Z</time></trkpt>
        <trkpt lat="29.4551431" lon="104.8756762"><ele>347.81</ele><time>2026-04-25T19:26:30.000Z</time></trkpt>
        <trkpt lat="29.4552221" lon="104.8756702"><ele>346.54</ele><time>2026-04-25T19:26:50.000Z</time></trkpt>
        <trkpt lat="29.4552874" lon="104.8755992"><ele>345.43</ele><time>2026-04-25T19:27:18.000Z</time></trkpt>
        <trkpt lat="29.4553789" lon="104.8755773"><ele>343.1</ele><time>2026-04-25T19:27:34.000Z</time></trkpt>
        <trkpt lat="29.4554707" lon="104.875613"><ele>341.4</ele><time>2026-04-25T19:28:00.000Z</time></trkpt>
        <trkpt lat="29.4555674" lon="104.8756562"><ele>340.19</ele><time>2026-04-25T19:28:16.000Z</time></trkpt>
        <trkpt lat="29.4556676" lon="104.8756988"><ele>339.45</ele><time>2026-04-25T19:28:28.000Z</time></trkpt>
        <trkpt lat="29.4557607" lon="104.8757557"><ele>339.46</ele><time>2026-04-25T19:28:40.000Z</time></trkpt>
        <trkpt lat="29.4558496" lon="104.8758159"><ele>339.34</ele><time>2026-04-25T19:28:52.000Z</time></trkpt>
        <trkpt lat="29.4559346" lon="104.8758714"><ele>338.88</ele><time>2026-04-25T19:29:04.000Z</time></trkpt>
        <trkpt lat="29.4560268" lon="104.8758952"><ele>338.7</ele><time>2026-04-25T19:29:16.000Z</time></trkpt>
        <trkpt lat="29.4561213" lon="104.8758702"><ele>338.14</ele><time>2026-04-25T19:29:30.000Z</time></trkpt>
        <trkpt lat="29.456211" lon="104.8758298"><ele>337.2</ele><time>2026-04-25T19:29:42.000Z</time></trkpt>
        <trkpt lat="29.4562945" lon="104.8757765"><ele>335.97</ele><time>2026-04-25T19:29:52.000Z</time></trkpt>
        <trkpt lat="29.4563742" lon="104.8757151"><ele>335.27</ele><time>2026-04-25T19:30:04.000Z</time></trkpt>
        <trkpt lat="29.4564562" lon="104.8757292"><ele>335.02</ele><time>2026-04-25T19:30:26.000Z</time></trkpt>
        <trkpt lat="29.4565433" lon="104.8757768"><ele>335.09</ele><time>2026-04-25T19:30:40.000Z</time></trkpt>
        <trkpt lat="29.4566364" lon="104.8757954"><ele>335.07</ele><time>2026-04-25T19:30:54.000Z</time></trkpt>
        <trkpt lat="29.4567278" lon="104.8758227"><ele>335.46</ele><time>2026-04-25T19:31:06.000Z</time></trkpt>
        <trkpt lat="29.4568154" lon="104.8758558"><ele>335.63</ele><time>2026-04-25T19:31:18.000Z</time></trkpt>
        <trkpt lat="29.4569091" lon="104.875865"><ele>335.94</ele><time>2026-04-25T19:31:30.000Z</time></trkpt>
        <trkpt lat="29.4568642" lon="104.8758698"><ele>335.96</ele><time>2026-04-25T19:32:00.000Z</time></trkpt>
        <trkpt lat="29.45691" lon="104.8758593"><ele>335.99</ele><time>2026-04-25T19:32:28.000Z</time></trkpt>
        <trkpt lat="29.4569953" lon="104.8758331"><ele>336.25</ele><time>2026-04-25T19:32:42.000Z</time></trkpt>
        <trkpt lat="29.4570984" lon="104.8758156"><ele>336.35</ele><time>2026-04-25T19:32:56.000Z</time></trkpt>
        <trkpt lat="29.4571982" lon="104.8758155"><ele>336.35</ele><time>2026-04-25T19:33:08.000Z</time></trkpt>
        <trkpt lat="29.4572999" lon="104.8758267"><ele>336.19</ele><time>2026-04-25T19:33:22.000Z</time></trkpt>
        <trkpt lat="29.4574028" lon="104.8758491"><ele>335.92</ele><time>2026-04-25T19:33:36.000Z</time></trkpt>
        <trkpt lat="29.4575038" lon="104.8758558"><ele>335.58</ele><time>2026-04-25T19:33:50.000Z</time></trkpt>
        <trkpt lat="29.4575981" lon="104.8758547"><ele>335.4</ele><time>2026-04-25T19:34:02.000Z</time></trkpt>
        <trkpt lat="29.4576939" lon="104.8758318"><ele>335.58</ele><time>2026-04-25T19:34:16.000Z</time></trkpt>
        <trkpt lat="29.457777" lon="104.8757815"><ele>335.74</ele><time>2026-04-25T19:34:34.000Z</time></trkpt>
        <trkpt lat="29.45785" lon="104.8757144"><ele>336.1</ele><time>2026-04-25T19:34:52.000Z</time></trkpt>
        <trkpt lat="29.45785" lon="104.8757144"><ele>336.1</ele><time>2026-04-25T19:35:18.000Z</time></trkpt>
      </trkseg>
      <trkseg>
        <trkpt lat="29.4576094" lon="104.8756574"><ele>335.67</ele><time>2026-04-25T19:40:13.000Z</time></trkpt>
        <trkpt lat="29.4576094" lon="104.8756574"><ele>335.67</ele><time>2026-04-25T19:40:26.000Z</time></trkpt>
        <trkpt lat="29.4575763" lon="104.8755558"><ele>340.3</ele><time>2026-04-25T19:40:38.000Z</time></trkpt>
        <trkpt lat="29.4575915" lon="104.8754463"><ele>343.22</ele><time>2026-04-25T19:40:58.000Z</time></trkpt>
        <trkpt lat="29.457602" lon="104.8753334"><ele>346.03</ele><time>2026-04-25T19:41:14.000Z</time></trkpt>
        <trkpt lat="29.457624" lon="104.8752276"><ele>348.67</ele><time>2026-04-25T19:41:26.000Z</time></trkpt>
        <trkpt lat="29.4576017" lon="104.8751288"><ele>350.49</ele><time>2026-04-25T19:41:58.000Z</time></trkpt>
        <trkpt lat="29.4575927" lon="104.8750234"><ele>352.46</ele><time>2026-04-25T19:42:24.000Z</time></trkpt>
        <trkpt lat="29.4576023" lon="104.8749123"><ele>355.23</ele><time>2026-04-25T19:42:36.000Z</time></trkpt>
        <trkpt lat="29.4576281" lon="104.8748058"><ele>356.84</ele><time>2026-04-25T19:42:58.000Z</time></trkpt>
        <trkpt lat="29.4576525" lon="104.8746973"><ele>356.55</ele><time>2026-04-25T19:43:14.000Z</time></trkpt>
        <trkpt lat="29.4576797" lon="104.8745882"><ele>356.15</ele><time>2026-04-25T19:43:52.000Z</time></trkpt>
        <trkpt lat="29.4577014" lon="104.8744778"><ele>354.34</ele><time>2026-04-25T19:44:42.000Z</time></trkpt>
        <trkpt lat="29.4577111" lon="104.8743529"><ele>352.53</ele><time>2026-04-25T19:45:50.000Z</time></trkpt>
        <trkpt lat="29.4576632" lon="104.874271"><ele>351.75</ele><time>2026-04-25T19:46:10.000Z</time></trkpt>
        <trkpt lat="29.4576995" lon="104.8741817"><ele>352.16</ele><time>2026-04-25T19:46:54.000Z</time></trkpt>
        <trkpt lat="29.4577301" lon="104.874073"><ele>355.49</ele><time>2026-04-25T19:47:56.000Z</time></trkpt>
        <trkpt lat="29.4577301" lon="104.874073"><ele>355.49</ele><time>2026-04-25T19:49:28.000Z</time></trkpt>
      </trkseg>
      <trkseg>
        <trkpt lat="29.4577316" lon="104.8734306"><ele>358.71</ele><time>2026-04-25T19:53:25.000Z</time></trkpt>
        <trkpt lat="29.4577316" lon="104.8734306"><ele>358.71</ele><time>2026-04-25T19:53:40.000Z</time></trkpt>
        <trkpt lat="29.4577229" lon="104.8733276"><ele>358.01</ele><time>2026-04-25T19:54:00.000Z</time></trkpt>
        <trkpt lat="29.457707" lon="104.8732199"><ele>359.42</ele><time>2026-04-25T19:54:24.000Z</time></trkpt>
        <trkpt lat="29.457734" lon="104.8731234"><ele>362.17</ele><time>2026-04-25T19:54:40.000Z</time></trkpt>
        <trkpt lat="29.4577773" lon="104.8730263"><ele>364.37</ele><time>2026-04-25T19:55:28.000Z</time></trkpt>
        <trkpt lat="29.4577727" lon="104.8729203"><ele>364.68</ele><time>2026-04-25T19:55:48.000Z</time></trkpt>
        <trkpt lat="29.457741" lon="104.8728159"><ele>364.76</ele><time>2026-04-25T19:56:02.000Z</time></trkpt>
        <trkpt lat="29.4577182" lon="104.8727119"><ele>364.96</ele><time>2026-04-25T19:56:16.000Z</time></trkpt>
        <trkpt lat="29.4577483" lon="104.8726123"><ele>364.67</ele><time>2026-04-25T19:56:30.000Z</time></trkpt>
        <trkpt lat="29.4577671" lon="104.8725034"><ele>364.18</ele><time>2026-04-25T19:56:44.000Z</time></trkpt>
        <trkpt lat="29.4578032" lon="104.8724036"><ele>364</ele><time>2026-04-25T19:57:00.000Z</time></trkpt>
        <trkpt lat="29.4578425" lon="104.8723013"><ele>363.69</ele><time>2026-04-25T19:57:14.000Z</time></trkpt>
        <trkpt lat="29.4578651" lon="104.8721988"><ele>363.34</ele><time>2026-04-25T19:57:26.000Z</time></trkpt>
        <trkpt lat="29.4579077" lon="104.8721044"><ele>363.02</ele><time>2026-04-25T19:57:38.000Z</time></trkpt>
        <trkpt lat="29.4579808" lon="104.8720099"><ele>362.13</ele><time>2026-04-25T19:57:54.000Z</time></trkpt>
        <trkpt lat="29.4579955" lon="104.8719076"><ele>361.36</ele><time>2026-04-25T19:58:20.000Z</time></trkpt>
        <trkpt lat="29.4580315" lon="104.8718141"><ele>362.94</ele><time>2026-04-25T19:58:34.000Z</time></trkpt>
        <trkpt lat="29.4580784" lon="104.8717185"><ele>363.41</ele><time>2026-04-25T19:58:48.000Z</time></trkpt>
        <trkpt lat="29.4581286" lon="104.8716259"><ele>363.6</ele><time>2026-04-25T19:59:02.000Z</time></trkpt>
        <trkpt lat="29.4581875" lon="104.8715297"><ele>363.56</ele><time>2026-04-25T19:59:16.000Z</time></trkpt>
        <trkpt lat="29.4582401" lon="104.8714376"><ele>361.68</ele><time>2026-04-25T19:59:28.000Z</time></trkpt>
        <trkpt lat="29.4582973" lon="104.8713441"><ele>360.54</ele><time>2026-04-25T19:59:40.000Z</time></trkpt>
        <trkpt lat="29.45836" lon="104.8712592"><ele>359.63</ele><time>2026-04-25T19:59:52.000Z</time></trkpt>
        <trkpt lat="29.4584307" lon="104.8711792"><ele>359.39</ele><time>2026-04-25T20:00:04.000Z</time></trkpt>
        <trkpt lat="29.4585007" lon="104.8711084"><ele>358.68</ele><time>2026-04-25T20:00:16.000Z</time></trkpt>
        <trkpt lat="29.4585826" lon="104.8710547"><ele>358.57</ele><time>2026-04-25T20:00:30.000Z</time></trkpt>
        <trkpt lat="29.4586569" lon="104.8709934"><ele>357.86</ele><time>2026-04-25T20:00:48.000Z</time></trkpt>
        <trkpt lat="29.4587344" lon="104.8709217"><ele>355.37</ele><time>2026-04-25T20:01:02.000Z</time></trkpt>
        <trkpt lat="29.4588378" lon="104.8709453"><ele>353.25</ele><time>2026-04-25T20:01:22.000Z</time></trkpt>
        <trkpt lat="29.4588627" lon="104.8708787"><ele>351.67</ele><time>2026-04-25T20:01:30.000Z</time></trkpt>
        <trkpt lat="29.4589224" lon="104.8708095"><ele>349.82</ele><time>2026-04-25T20:01:44.000Z</time></trkpt>
        <trkpt lat="29.4590024" lon="104.8707562"><ele>348.94</ele><time>2026-04-25T20:01:56.000Z</time></trkpt>
        <trkpt lat="29.459094" lon="104.8707139"><ele>348.59</ele><time>2026-04-25T20:02:08.000Z</time></trkpt>
        <trkpt lat="29.4591909" lon="104.8706727"><ele>348.47</ele><time>2026-04-25T20:02:20.000Z</time></trkpt>
        <trkpt lat="29.4592833" lon="104.8706364"><ele>348.12</ele><time>2026-04-25T20:02:30.000Z</time></trkpt>
        <trkpt lat="29.4593767" lon="104.8706133"><ele>347.6</ele><time>2026-04-25T20:02:40.000Z</time></trkpt>
        <trkpt lat="29.4594736" lon="104.8706143"><ele>346.91</ele><time>2026-04-25T20:02:52.000Z</time></trkpt>
        <trkpt lat="29.4595746" lon="104.8706358"><ele>346.15</ele><time>2026-04-25T20:03:02.000Z</time></trkpt>
        <trkpt lat="29.45967" lon="104.8706422"><ele>344.71</ele><time>2026-04-25T20:03:14.000Z</time></trkpt>
        <trkpt lat="29.4596778" lon="104.8705336"><ele>343.46</ele><time>2026-04-25T20:04:24.000Z</time></trkpt>
        <trkpt lat="29.4597096" lon="104.8704251"><ele>342.03</ele><time>2026-04-25T20:04:56.000Z</time></trkpt>
        <trkpt lat="29.4597362" lon="104.8703173"><ele>339.79</ele><time>2026-04-25T20:05:14.000Z</time></trkpt>
        <trkpt lat="29.4597689" lon="104.8702175"><ele>337.38</ele><time>2026-04-25T20:05:28.000Z</time></trkpt>
        <trkpt lat="29.4597689" lon="104.8702175"><ele>337.38</ele><time>2026-04-25T20:06:38.000Z</time></trkpt>
      </trkseg>
      <trkseg>
        <trkpt lat="29.4591883" lon="104.869855"><ele>335.05</ele><time>2026-04-25T20:09:18.000Z</time></trkpt>
        <trkpt lat="29.4591883" lon="104.869855"><ele>335.05</ele><time>2026-04-25T20:09:30.000Z</time></trkpt>
        <trkpt lat="29.4590993" lon="104.8698035"><ele>331.82</ele><time>2026-04-25T20:09:50.000Z</time></trkpt>
        <trkpt lat="29.4590081" lon="104.8697784"><ele>329.03</ele><time>2026-04-25T20:10:00.000Z</time></trkpt>
        <trkpt lat="29.4589199" lon="104.8697983"><ele>327.58</ele><time>2026-04-25T20:10:12.000Z</time></trkpt>
        <trkpt lat="29.4588321" lon="104.8698429"><ele>326.91</ele><time>2026-04-25T20:10:26.000Z</time></trkpt>
        <trkpt lat="29.4587419" lon="104.869874"><ele>326.65</ele><time>2026-04-25T20:10:38.000Z</time></trkpt>
        <trkpt lat="29.4586452" lon="104.869897"><ele>326.29</ele><time>2026-04-25T20:10:52.000Z</time></trkpt>
        <trkpt lat="29.4585491" lon="104.8698964"><ele>326.15</ele><time>2026-04-25T20:11:04.000Z</time></trkpt>
        <trkpt lat="29.4584528" lon="104.8698686"><ele>326.02</ele><time>2026-04-25T20:11:16.000Z</time></trkpt>
        <trkpt lat="29.4583614" lon="104.8698348"><ele>326.02</ele><time>2026-04-25T20:11:28.000Z</time></trkpt>
        <trkpt lat="29.4582739" lon="104.8697779"><ele>326.05</ele><time>2026-04-25T20:11:42.000Z</time></trkpt>
        <trkpt lat="29.4581918" lon="104.8697251"><ele>326.34</ele><time>2026-04-25T20:11:54.000Z</time></trkpt>
        <trkpt lat="29.4581055" lon="104.8696857"><ele>326.54</ele><time>2026-04-25T20:12:08.000Z</time></trkpt>
        <trkpt lat="29.4580154" lon="104.869653"><ele>326.64</ele><time>2026-04-25T20:12:22.000Z</time></trkpt>
        <trkpt lat="29.4579257" lon="104.8696165"><ele>327.16</ele><time>2026-04-25T20:12:36.000Z</time></trkpt>
        <trkpt lat="29.4578459" lon="104.8695615"><ele>327.84</ele><time>2026-04-25T20:12:48.000Z</time></trkpt>
        <trkpt lat="29.4577611" lon="104.8694991"><ele>328.29</ele><time>2026-04-25T20:13:02.000Z</time></trkpt>
        <trkpt lat="29.4576858" lon="104.869432"><ele>328.79</ele><time>2026-04-25T20:13:30.000Z</time></trkpt>
        <trkpt lat="29.4576154" lon="104.869365"><ele>329.25</ele><time>2026-04-25T20:13:42.000Z</time></trkpt>
        <trkpt lat="29.4575486" lon="104.869291"><ele>330.29</ele><time>2026-04-25T20:13:54.000Z</time></trkpt>
        <trkpt lat="29.45748" lon="104.8692134"><ele>331.24</ele><time>2026-04-25T20:14:08.000Z</time></trkpt>
        <trkpt lat="29.4574124" lon="104.86913"><ele>332.51</ele><time>2026-04-25T20:14:22.000Z</time></trkpt>
        <trkpt lat="29.4573493" lon="104.8690417"><ele>333.24</ele><time>2026-04-25T20:14:36.000Z</time></trkpt>
        <trkpt lat="29.4572864" lon="104.8689517"><ele>333.99</ele><time>2026-04-25T20:14:50.000Z</time></trkpt>
        <trkpt lat="29.4572422" lon="104.8688555"><ele>334.72</ele><time>2026-04-25T20:15:20.000Z</time></trkpt>
        <trkpt lat="29.4571824" lon="104.8687755"><ele>334.81</ele><time>2026-04-25T20:15:46.000Z</time></trkpt>
        <trkpt lat="29.4570964" lon="104.8687212"><ele>335.13</ele><time>2026-04-25T20:16:02.000Z</time></trkpt>
        <trkpt lat="29.4570003" lon="104.868724"><ele>335.98</ele><time>2026-04-25T20:16:22.000Z</time></trkpt>
        <trkpt lat="29.4569087" lon="104.8687662"><ele>337.17</ele><time>2026-04-25T20:16:38.000Z</time></trkpt>
        <trkpt lat="29.4568196" lon="104.8688094"><ele>337.39</ele><time>2026-04-25T20:16:52.000Z</time></trkpt>
        <trkpt lat="29.4567293" lon="104.8688167"><ele>338.49</ele><time>2026-04-25T20:17:06.000Z</time></trkpt>
        <trkpt lat="29.4566377" lon="104.8687783"><ele>338.44</ele><time>2026-04-25T20:17:24.000Z</time></trkpt>
        <trkpt lat="29.4565406" lon="104.8687428"><ele>337.62</ele><time>2026-04-25T20:17:36.000Z</time></trkpt>
        <trkpt lat="29.4564488" lon="104.8687065"><ele>336.42</ele><time>2026-04-25T20:17:48.000Z</time></trkpt>
        <trkpt lat="29.4563581" lon="104.8686636"><ele>335.65</ele><time>2026-04-25T20:18:00.000Z</time></trkpt>
        <trkpt lat="29.4562584" lon="104.868626"><ele>335.03</ele><time>2026-04-25T20:18:22.000Z</time></trkpt>
        <trkpt lat="29.4561672" lon="104.8685892"><ele>332.81</ele><time>2026-04-25T20:18:40.000Z</time></trkpt>
        <trkpt lat="29.4560734" lon="104.8686153"><ele>331.52</ele><time>2026-04-25T20:18:58.000Z</time></trkpt>
        <trkpt lat="29.455994" lon="104.8686822"><ele>331.04</ele><time>2026-04-25T20:19:12.000Z</time></trkpt>
        <trkpt lat="29.4559425" lon="104.8687823"><ele>331.49</ele><time>2026-04-25T20:19:26.000Z</time></trkpt>
        <trkpt lat="29.4558983" lon="104.8688939"><ele>332.51</ele><time>2026-04-25T20:19:40.000Z</time></trkpt>
        <trkpt lat="29.4558501" lon="104.8689928"><ele>333.94</ele><time>2026-04-25T20:19:54.000Z</time></trkpt>
        <trkpt lat="29.4557762" lon="104.8690518"><ele>335.3</ele><time>2026-04-25T20:20:06.000Z</time></trkpt>
        <trkpt lat="29.4556866" lon="104.8690722"><ele>337.13</ele><time>2026-04-25T20:20:18.000Z</time></trkpt>
        <trkpt lat="29.4555892" lon="104.8691049"><ele>338.83</ele><time>2026-04-25T20:20:32.000Z</time></trkpt>
        <trkpt lat="29.4554968" lon="104.8691381"><ele>340.34</ele><time>2026-04-25T20:20:56.000Z</time></trkpt>
        <trkpt lat="29.4554079" lon="104.8691694"><ele>341.18</ele><time>2026-04-25T20:21:14.000Z</time></trkpt>
        <trkpt lat="29.4553325" lon="104.869238"><ele>341.8</ele><time>2026-04-25T20:21:42.000Z</time></trkpt>
        <trkpt lat="29.4552527" lon="104.869205"><ele>342.24</ele><time>2026-04-25T20:21:58.000Z</time></trkpt>
        <trkpt lat="29.4551685" lon="104.8691324"><ele>344.16</ele><time>2026-04-25T20:22:10.000Z</time></trkpt>
        <trkpt lat="29.4550678" lon="104.8690817"><ele>345.5</ele><time>2026-04-25T20:22:22.000Z</time></trkpt>
        <trkpt lat="29.4549624" lon="104.8690774"><ele>346.06</ele><time>2026-04-25T20:22:34.000Z</time></trkpt>
        <trkpt lat="29.4548554" lon="104.8690755"><ele>346.2</ele><time>2026-04-25T20:22:46.000Z</time></trkpt>
        <trkpt lat="29.4547587" lon="104.8690664"><ele>346.43</ele><time>2026-04-25T20:22:56.000Z</time></trkpt>
        <trkpt lat="29.4546658" lon="104.8691061"><ele>346.61</ele><time>2026-04-25T20:23:08.000Z</time></trkpt>
        <trkpt lat="29.4545928" lon="104.8691838"><ele>345.96</ele><time>2026-04-25T20:23:20.000Z</time></trkpt>
        <trkpt lat="29.4545346" lon="104.8692781"><ele>345.34</ele><time>2026-04-25T20:23:32.000Z</time></trkpt>
        <trkpt lat="29.4544858" lon="104.8693728"><ele>345.3</ele><time>2026-04-25T20:23:48.000Z</time></trkpt>
        <trkpt lat="29.4544471" lon="104.8694746"><ele>345.3</ele><time>2026-04-25T20:24:00.000Z</time></trkpt>
        <trkpt lat="29.4544471" lon="104.8694746"><ele>345.3</ele><time>2026-04-25T20:25:34.000Z</time></trkpt>
      </trkseg>
      <trkseg>
        <trkpt lat="29.4534211" lon="104.8703769"><ele>345.71</ele><time>2026-04-25T20:29:38.000Z</time></trkpt>
        <trkpt lat="29.4534211" lon="104.8703769"><ele>345.71</ele><time>2026-04-25T20:29:50.000Z</time></trkpt>
        <trkpt lat="29.4533568" lon="104.8704699"><ele>350.77</ele><time>2026-04-25T20:30:04.000Z</time></trkpt>
        <trkpt lat="29.4533157" lon="104.8705758"><ele>353.73</ele><time>2026-04-25T20:30:16.000Z</time></trkpt>
        <trkpt lat="29.4532906" lon="104.8706846"><ele>355.47</ele><time>2026-04-25T20:30:28.000Z</time></trkpt>
        <trkpt lat="29.4532757" lon="104.8707994"><ele>356.34</ele><time>2026-04-25T20:30:40.000Z</time></trkpt>
        <trkpt lat="29.4532399" lon="104.8709095"><ele>355.81</ele><time>2026-04-25T20:30:52.000Z</time></trkpt>
        <trkpt lat="29.4531829" lon="104.8709989"><ele>354.77</ele><time>2026-04-25T20:31:02.000Z</time></trkpt>
        <trkpt lat="29.4530988" lon="104.8710609"><ele>353.95</ele><time>2026-04-25T20:31:12.000Z</time></trkpt>
        <trkpt lat="29.4530045" lon="104.8710561"><ele>353.42</ele><time>2026-04-25T20:31:22.000Z</time></trkpt>
        <trkpt lat="29.4529008" lon="104.871063"><ele>353.38</ele><time>2026-04-25T20:31:34.000Z</time></trkpt>
        <trkpt lat="29.4528614" lon="104.8710559"><ele>353.54</ele><time>2026-04-25T20:31:38.000Z</time></trkpt>
        <trkpt lat="29.4527848" lon="104.871076"><ele>353.52</ele><time>2026-04-25T20:31:54.000Z</time></trkpt>
        <trkpt lat="29.4527848" lon="104.871076"><ele>353.52</ele><time>2026-04-25T20:32:40.000Z</time></trkpt>
      </trkseg>
  </trk>
</gpx>